createdAt,value
2018-10-16T00:02:25.121Z,22.20
2018-10-16T00:07:27.285Z,26.53
2018-10-16T00:12:29.425Z,25.80
2018-10-16T00:17:31.543Z,31.90
2018-10-16T00:22:33.691Z,27.97
2018-10-16T00:27:35.836Z,22.93
2018-10-16T00:32:38.377Z,27.60
2018-10-16T00:37:40.468Z,26.57
2018-10-16T00:42:42.590Z,27.10
2018-10-16T00:47:44.741Z,24.17
2018-10-16T00:52:46.881Z,26.83
2018-10-16T00:57:49.024Z,23.30
2018-10-16T01:02:51.872Z,25.10
2018-10-16T01:07:54.008Z,28.47
2018-10-16T01:12:56.214Z,30.17
2018-10-16T01:17:58.342Z,27.33
2018-10-16T01:23:00.474Z,25.83
2018-10-16T01:28:02.645Z,24.57
2018-10-16T01:33:04.803Z,24.13
2018-10-16T01:38:06.906Z,29.93
2018-10-16T01:43:09.022Z,28.33
2018-10-16T01:48:11.188Z,31.73
2018-10-16T01:53:13.311Z,34.57
2018-10-16T01:58:15.450Z,28.00
2018-10-16T02:03:17.574Z,29.97
2018-10-16T02:08:19.704Z,33.93
2018-10-16T02:13:21.847Z,31.30
2018-10-16T02:18:24.002Z,29.67
2018-10-16T02:23:26.115Z,28.53
2018-10-16T02:28:28.231Z,32.80
2018-10-16T02:33:30.333Z,29.50
2018-10-16T02:38:32.433Z,30.43
2018-10-16T02:43:34.526Z,30.07
2018-10-16T02:48:37.355Z,29.93
2018-10-16T02:53:39.577Z,34.60
2018-10-16T02:58:41.686Z,29.93
2018-10-16T03:03:43.821Z,28.27
2018-10-16T03:08:45.935Z,34.30
2018-10-16T03:13:48.082Z,32.08
2018-10-16T03:18:50.247Z,28.40
2018-10-16T03:23:52.366Z,24.60
2018-10-16T03:28:54.488Z,32.13
2018-10-16T03:33:56.648Z,24.13
2018-10-16T03:38:58.746Z,33.40
2018-10-16T03:44:01.700Z,26.57
2018-10-16T03:49:04.186Z,29.87
2018-10-16T03:54:06.675Z,36.47
2018-10-16T03:59:08.806Z,33.47
2018-10-16T04:04:10.921Z,37.03
2018-10-16T04:09:13.036Z,32.80
2018-10-16T04:14:15.186Z,35.90
2018-10-16T04:19:17.307Z,38.40
2018-10-16T04:24:19.415Z,32.07
2018-10-16T04:29:21.656Z,31.90
2018-10-16T04:34:23.674Z,35.70
2018-10-16T04:39:25.826Z,41.57
2018-10-16T04:44:27.930Z,41.60
2018-10-16T04:49:30.079Z,37.30
2018-10-16T04:54:32.206Z,33.77
2018-10-16T04:59:34.369Z,35.23
2018-10-16T05:04:36.541Z,35.70
2018-10-16T05:09:38.668Z,35.30
2018-10-16T05:14:40.790Z,40.07
2018-10-16T05:19:42.930Z,40.77
2018-10-16T05:24:45.071Z,43.53
2018-10-16T05:29:47.225Z,39.83
2018-10-16T05:34:49.351Z,33.67
2018-10-16T05:39:51.462Z,38.07
2018-10-16T05:44:53.643Z,38.13
2018-10-16T05:49:55.803Z,42.70
2018-10-16T05:54:57.992Z,38.23
2018-10-16T06:00:11.989Z,39.53
2018-10-16T06:05:14.148Z,36.83
2018-10-16T06:10:16.286Z,38.90
2018-10-16T06:15:18.462Z,36.53
2018-10-16T06:20:20.574Z,33.47
2018-10-16T06:25:22.755Z,36.20
2018-10-16T06:30:25.043Z,44.17
2018-10-16T06:35:27.049Z,37.80
2018-10-16T06:40:29.264Z,39.63
2018-10-16T06:45:31.354Z,37.63
2018-10-16T06:50:33.538Z,39.40
2018-10-16T06:55:35.723Z,35.73
2018-10-16T07:00:37.901Z,32.03
2018-10-16T07:05:40.026Z,46.57
2018-10-16T07:10:42.185Z,37.00
2018-10-16T07:15:44.301Z,36.83
2018-10-16T07:20:46.449Z,39.80
2018-10-16T07:25:48.581Z,43.30
2018-10-16T07:30:50.733Z,41.77
2018-10-16T07:35:52.830Z,47.47
2018-10-16T07:40:54.965Z,52.70
2018-10-16T07:45:57.129Z,46.97
2018-10-16T07:50:59.266Z,47.57
2018-10-16T07:56:01.421Z,44.40
2018-10-16T08:01:03.616Z,42.57
2018-10-16T08:06:06.117Z,50.03
2018-10-16T08:11:08.290Z,47.47
2018-10-16T08:16:10.444Z,50.50
2018-10-16T08:21:12.567Z,60.50
2018-10-16T08:26:14.733Z,63.17
2018-10-16T08:31:16.871Z,54.60
2018-10-16T08:36:19.132Z,50.53
2018-10-16T08:41:25.186Z,53.63
2018-10-16T08:46:38.771Z,51.63
2018-10-16T08:51:49.474Z,52.93
2018-10-16T08:56:51.635Z,51.20
2018-10-16T09:01:53.782Z,52.67
2018-10-16T09:06:55.980Z,66.00
2018-10-16T09:11:58.122Z,63.43
2018-10-16T09:17:00.282Z,49.80
2018-10-16T09:22:02.431Z,52.00
2018-10-16T09:27:04.807Z,49.63
2018-10-16T09:32:06.988Z,67.27
2018-10-16T09:37:09.094Z,54.83
2018-10-16T09:42:11.273Z,59.13
2018-10-16T09:47:13.434Z,63.87
2018-10-16T09:52:15.623Z,55.00
2018-10-16T09:57:17.813Z,53.83
2018-10-16T10:02:19.988Z,60.80
2018-10-16T10:07:22.149Z,56.63
2018-10-16T10:12:24.295Z,48.57
2018-10-16T10:17:26.414Z,43.37
2018-10-16T10:22:28.618Z,31.10
2018-10-16T10:27:31.196Z,30.57
2018-10-16T10:32:33.347Z,33.43
2018-10-16T10:37:35.475Z,27.90
2018-10-16T10:42:37.611Z,27.20
2018-10-16T10:47:39.779Z,32.90
2018-10-16T10:52:41.951Z,33.33
2018-10-16T10:57:44.211Z,32.20
2018-10-16T11:02:47.584Z,24.50
2018-10-16T11:07:49.730Z,24.80
2018-10-16T11:12:51.851Z,19.83
2018-10-16T11:17:54.847Z,24.80
2018-10-16T11:22:57.000Z,27.17
2018-10-16T11:27:59.339Z,29.17
2018-10-16T11:33:01.526Z,32.73
2018-10-16T11:38:03.751Z,25.00
2018-10-16T11:43:05.889Z,31.80
2018-10-16T11:48:08.120Z,29.57
2018-10-16T11:53:10.353Z,26.93
2018-10-16T11:58:12.511Z,30.50
2018-10-16T12:03:14.700Z,32.20
2018-10-16T12:08:16.882Z,32.33
2018-10-16T12:13:19.016Z,30.63
2018-10-16T12:19:24.082Z,37.43
2018-10-16T12:24:26.228Z,32.97
2018-10-16T12:29:28.402Z,31.40
2018-10-16T12:34:30.535Z,34.80
2018-10-16T12:39:32.697Z,31.63
2018-10-16T12:44:34.824Z,34.27
2018-10-16T12:49:36.955Z,29.23
2018-10-16T12:54:39.143Z,32.07
2018-10-16T12:59:41.343Z,37.67
2018-10-16T13:04:43.475Z,36.20
2018-10-16T13:09:45.655Z,43.43
2018-10-16T13:14:47.800Z,49.83
2018-10-16T13:19:49.921Z,46.33
2018-10-16T13:24:52.047Z,42.07
2018-10-16T13:29:54.218Z,41.05
2018-10-16T13:34:56.381Z,45.60
2018-10-16T13:39:58.596Z,48.17
2018-10-16T13:45:01.061Z,50.00
2018-10-16T13:50:04.184Z,49.00
2018-10-16T13:55:07.092Z,46.67
2018-10-16T14:00:20.267Z,43.20
2018-10-16T14:05:22.433Z,50.30
2018-10-16T14:10:24.592Z,48.60
2018-10-16T14:15:26.748Z,55.80
2018-10-16T14:20:28.912Z,53.27
2018-10-16T14:25:31.113Z,53.20
2018-10-16T14:30:33.629Z,59.00
2018-10-16T14:35:35.759Z,58.87
2018-10-16T14:40:38.005Z,63.23
2018-10-16T14:45:40.099Z,69.73
2018-10-16T14:50:42.237Z,69.70
2018-10-16T14:55:44.456Z,73.47
2018-10-16T15:00:46.628Z,68.97
2018-10-16T15:05:48.807Z,68.17
2018-10-16T15:10:51.010Z,77.50
2018-10-16T15:15:53.189Z,80.63
2018-10-16T15:20:55.319Z,86.03
2018-10-16T15:25:57.518Z,81.57
2018-10-16T15:30:59.712Z,73.33
2018-10-16T15:36:01.893Z,79.90
2018-10-16T15:41:04.355Z,77.87
2018-10-16T15:46:06.554Z,78.83
2018-10-16T15:51:08.751Z,82.63
2018-10-16T15:56:11.058Z,84.93
2018-10-16T16:01:13.097Z,76.30
2018-10-16T16:06:15.279Z,88.13
2018-10-16T16:11:17.478Z,78.67
2018-10-16T16:16:19.608Z,81.93
2018-10-16T16:21:21.809Z,74.50
2018-10-16T16:26:24.042Z,80.93
2018-10-16T16:31:26.169Z,82.63
2018-10-16T16:36:28.378Z,84.83
2018-10-16T16:41:30.480Z,76.73
2018-10-16T16:46:32.656Z,105.13
2018-10-16T16:51:34.832Z,76.30
2018-10-16T16:56:37.015Z,92.20
2018-10-16T17:01:39.224Z,83.57
2018-10-16T17:06:41.409Z,89.13
2018-10-16T17:11:43.628Z,88.20
2018-10-16T17:16:45.795Z,85.30
2018-10-16T17:21:47.945Z,89.17
2018-10-16T17:26:50.177Z,87.57
2018-10-16T17:31:52.280Z,73.50
2018-10-16T17:36:54.493Z,91.70
2018-10-16T17:41:56.714Z,91.97
2018-10-16T17:46:58.960Z,79.50
2018-10-16T17:52:01.351Z,109.37
2018-10-16T17:57:03.757Z,106.60
2018-10-16T18:02:05.996Z,84.43
2018-10-16T18:07:08.205Z,89.53
2018-10-16T18:12:10.440Z,84.67
2018-10-16T18:17:12.651Z,98.10
2018-10-16T18:22:14.862Z,77.80
2018-10-16T18:27:17.053Z,100.33
2018-10-16T18:32:19.446Z,95.57
2018-10-16T18:37:21.674Z,84.43
2018-10-16T18:42:23.918Z,95.53
2018-10-16T18:47:26.206Z,104.23
2018-10-16T18:52:28.513Z,88.03
2018-10-16T18:57:31.491Z,74.93
2018-10-16T19:02:33.941Z,84.80
2018-10-16T19:07:37.042Z,91.47
2018-10-16T19:12:42.091Z,101.33
2018-10-16T19:17:46.430Z,95.20
2018-10-16T19:22:49.840Z,88.90
2018-10-16T19:27:52.582Z,80.13
2018-10-16T19:32:55.201Z,84.73
2018-10-16T19:37:57.811Z,77.90
2018-10-16T19:43:01.063Z,80.53
2018-10-16T19:48:05.333Z,91.70
2018-10-16T19:53:07.950Z,82.63
2018-10-16T19:58:10.565Z,80.03
2018-10-16T20:03:12.967Z,89.33
2018-10-16T20:08:15.481Z,92.60
2018-10-16T20:13:17.707Z,87.67
2018-10-16T20:18:20.300Z,81.13
2018-10-16T20:23:22.521Z,92.93
2018-10-16T20:28:24.675Z,75.50
2018-10-16T20:33:26.860Z,94.20
2018-10-16T20:38:29.030Z,81.70
2018-10-16T20:43:31.405Z,90.67
2018-10-16T20:48:33.657Z,82.50
2018-10-16T20:53:35.839Z,84.53
2018-10-16T20:58:38.021Z,88.77
2018-10-16T21:03:40.164Z,84.53
2018-10-16T21:08:42.317Z,95.37
2018-10-16T21:13:44.469Z,90.27
2018-10-16T21:18:46.632Z,94.63
2018-10-16T21:23:48.761Z,83.27
2018-10-16T21:28:50.881Z,89.97
2018-10-16T21:33:53.082Z,97.33
2018-10-16T21:38:55.189Z,82.47
2018-10-16T21:43:57.333Z,92.37
2018-10-16T21:48:59.544Z,82.00
2018-10-16T21:54:01.651Z,89.58
2018-10-16T21:59:04.796Z,88.57
2018-10-16T22:04:06.986Z,88.37
2018-10-16T22:09:11.667Z,87.77
2018-10-16T22:14:13.881Z,74.90
2018-10-16T22:19:16.333Z,70.03
2018-10-16T22:24:18.431Z,75.50
2018-10-16T22:29:20.615Z,69.33
2018-10-16T22:34:22.731Z,82.17
2018-10-16T22:39:24.897Z,75.13
2018-10-16T22:44:27.063Z,73.07
2018-10-16T22:49:29.215Z,67.73
2018-10-16T22:54:31.341Z,73.07
2018-10-16T22:59:33.542Z,84.77
2018-10-16T23:04:36.050Z,70.10
2018-10-16T23:09:38.242Z,65.93
2018-10-16T23:14:40.360Z,71.50
2018-10-16T23:19:42.881Z,85.60
2018-10-16T23:24:45.011Z,73.37
2018-10-16T23:29:47.118Z,81.47
2018-10-16T23:34:49.288Z,71.53
2018-10-16T23:39:51.436Z,64.30
2018-10-16T23:44:53.586Z,79.40
2018-10-16T23:49:55.705Z,75.50
2018-10-16T23:54:57.854Z,72.13
2018-10-16T23:59:59.994Z,73.87
